Time;durP1;ratioP1;P1;durP2;ratioP2;P2;SDS_P1;SDS_P2;PMS_P1;PMS_P2;Temp;Humidity;BMP_temperature;BMP_pressure;BME280_temperature;BME280_humidity;BME280_pressure;Samples;Min_cycle;Max_cycle;Signal;HPM_P1;HPM_P2
2021/05/31 00:02:55;;;;;;;7.28;3.40;;;;;;;14.45;76.28;100556.77;1790456;80;21899;-58
2021/05/31 00:06:02;;;;;;;7.12;3.50;;;;;;;14.44;76.37;100557.83;1790322;80;21531;-58
2021/05/31 00:09:08;;;;;;;5.33;3.12;;;;;;;14.45;76.39;100553.14;1790434;80;21720;-58
2021/05/31 00:12:18;;;;;;;5.95;3.87;;;;;;;14.43;76.35;100560.23;1790372;80;21173;-60
2021/05/31 00:15:26;;;;;;;7.42;4.15;;;;;;;14.44;76.40;100563.34;1790462;80;21284;-61
2021/05/31 00:18:33;;;;;;;8.58;4.35;;;;;;;14.42;76.36;100558.54;1790500;80;21177;-62
2021/05/31 00:21:38;;;;;;;5.65;4.30;;;;;;;14.41;76.32;100560.11;1790443;80;21706;-58
2021/05/31 00:24:44;;;;;;;7.72;4.62;;;;;;;14.37;76.27;100563.77;1790532;80;21261;-59
2021/05/31 00:27:53;;;;;;;5.78;4.03;;;;;;;14.37;76.33;100555.52;1790445;80;21896;-60
2021/05/31 00:30:58;;;;;;;6.15;4.20;;;;;;;14.36;76.32;100556.58;1790364;80;21267;-59
2021/05/31 00:34:05;;;;;;;5.20;3.40;;;;;;;14.37;76.33;100552.76;1795791;79;21207;-58
2021/05/31 00:37:11;;;;;;;10.48;3.85;;;;;;;14.35;76.25;100561.73;1798711;80;21359;-59
2021/05/31 00:40:18;;;;;;;7.08;3.75;;;;;;;14.34;76.35;100561.93;1798895;79;21307;-59
2021/05/31 00:43:24;;;;;;;9.05;4.28;;;;;;;14.31;76.25;100556.81;1798864;80;21677;-60
2021/05/31 00:46:29;;;;;;;6.97;3.62;;;;;;;14.24;76.24;100557.25;1798807;80;21232;-60
2021/05/31 00:49:38;;;;;;;5.35;3.55;;;;;;;14.20;76.43;100560.91;1798802;80;21366;-59
2021/05/31 00:52:44;;;;;;;4.35;3.12;;;;;;;14.19;76.54;100559.73;1798647;80;21225;-59
2021/05/31 00:55:50;;;;;;;5.50;3.80;;;;;;;14.20;76.60;100561.43;1798712;80;21331;-59
2021/05/31 00:58:58;;;;;;;4.78;3.50;;;;;;;14.17;76.52;100567.33;1798760;80;21227;-58
2021/05/31 01:02:03;;;;;;;8.10;3.60;;;;;;;14.15;76.61;100569.41;1798890;80;21196;-58
2021/05/31 01:05:13;;;;;;;7.37;3.87;;;;;;;14.09;76.70;100572.95;1798712;80;21994;-59
2021/05/31 01:08:20;;;;;;;6.80;3.70;;;;;;;14.05;76.83;100568.34;1798766;80;21177;-59
2021/05/31 01:11:38;;;;;;;6.97;4.20;;;;;;;14.04;76.98;100571.30;1798817;80;21210;-59
2021/05/31 01:15:01;;;;;;;6.30;4.22;;;;;;;14.06;77.00;100570.59;1798877;80;21327;-60
2021/05/31 01:18:18;;;;;;;11.88;5.67;;;;;;;14.11;76.80;100568.11;1798754;80;21252;-60
2021/05/31 01:21:49;;;;;;;8.50;5.25;;;;;;;14.12;76.31;100565.67;1798868;80;21422;-60
2021/05/31 01:25:11;;;;;;;8.65;6.05;;;;;;;14.13;76.12;100570.16;1798592;80;21358;-59
2021/05/31 01:28:50;;;;;;;7.95;6.30;;;;;;;14.10;75.75;100563.63;1765416;80;21343;-58
2021/05/31 01:31:58;;;;;;;9.43;6.87;;;;;;;14.11;75.44;100566.73;1798848;80;21263;-59
2021/05/31 01:35:03;;;;;;;11.40;7.12;;;;;;;14.10;75.42;100567.76;1789131;80;21298;-58
2021/05/31 01:38:09;;;;;;;10.38;7.30;;;;;;;14.13;75.23;100572.91;1790487;80;21899;-59
2021/05/31 01:41:14;;;;;;;8.90;6.92;;;;;;;14.12;75.13;100570.67;1790465;80;21268;-60
2021/05/31 01:44:24;;;;;;;9.90;6.53;;;;;;;14.13;75.10;100570.16;1775492;79;21335;-60
2021/05/31 01:47:29;;;;;;;12.23;8.10;;;;;;;14.11;74.97;100576.37;1775776;79;21213;-60
2021/05/31 01:50:35;;;;;;;12.50;8.35;;;;;;;14.10;74.89;100569.14;1790700;80;21189;-59
2021/05/31 01:53:40;;;;;;;14.18;8.55;;;;;;;14.09;75.11;100574.33;1790471;80;21260;-59
2021/05/31 01:56:48;;;;;;;14.23;8.25;;;;;;;14.13;75.16;100575.66;1790430;80;21197;-60
2021/05/31 01:59:53;;;;;;;20.20;11.93;;;;;;;14.13;74.98;100574.28;1790494;80;21228;-57
2021/05/31 02:03:00;;;;;;;32.93;18.98;;;;;;;14.14;75.27;100569.09;1790049;80;21248;-60
2021/05/31 02:06:08;;;;;;;32.10;18.82;;;;;;;14.19;75.00;100579.01;1790500;80;21212;-59
2021/05/31 02:09:14;;;;;;;21.62;13.83;;;;;;;14.15;74.89;100572.16;1790444;80;21367;-59
2021/05/31 02:12:22;;;;;;;12.18;8.40;;;;;;;14.12;74.95;100573.94;1790485;80;21200;-58
2021/05/31 02:15:37;;;;;;;11.78;7.05;;;;;;;14.13;75.06;100582.55;1790584;80;21223;-58
2021/05/31 02:18:53;;;;;;;7.80;5.87;;;;;;;14.15;74.96;100585.93;1790469;80;21200;-58
2021/05/31 02:21:58;;;;;;;9.53;6.45;;;;;;;14.14;74.91;100586.99;1790519;80;21331;-58
2021/05/31 02:25:12;;;;;;;9.60;6.37;;;;;;;14.11;75.01;100589.59;1790560;80;21240;-59
2021/05/31 02:28:17;;;;;;;7.37;5.90;;;;;;;14.14;75.06;100586.48;1790499;80;21801;-58
2021/05/31 02:31:24;;;;;;;7.50;5.75;;;;;;;14.17;75.15;100586.09;1790560;80;21368;-58
2021/05/31 02:34:31;;;;;;;7.87;5.65;;;;;;;14.25;75.24;100586.52;1788630;80;21227;-59
2021/05/31 02:37:45;;;;;;;8.43;5.42;;;;;;;14.34;75.19;100586.72;1798909;80;21279;-58
2021/05/31 02:40:50;;;;;;;11.45;5.47;;;;;;;14.37;74.77;100586.32;1798959;80;21726;-58
2021/05/31 02:43:57;;;;;;;6.20;4.72;;;;;;;14.38;74.78;100591.64;1798831;80;21323;-57
2021/05/31 02:47:04;;;;;;;6.72;5.37;;;;;;;14.42;74.71;100590.72;1798868;80;21291;-59
2021/05/31 02:50:11;;;;;;;7.72;5.53;;;;;;;14.44;74.47;100585.88;1798891;80;21228;-60
2021/05/31 02:53:17;;;;;;;9.23;5.22;;;;;;;14.41;74.39;100577.47;1798987;80;21307;-60
2021/05/31 02:56:22;;;;;;;9.30;5.58;;;;;;;14.39;74.41;100574.59;1798897;80;21235;-58
2021/05/31 02:59:28;;;;;;;8.63;5.95;;;;;;;14.38;74.40;100573.73;1798798;80;21196;-61
2021/05/31 03:02:33;;;;;;;7.70;5.80;;;;;;;14.44;74.37;100581.75;1798762;80;21198;-61
2021/05/31 03:05:39;;;;;;;10.30;6.47;;;;;;;14.49;74.07;100578.72;1798919;80;21253;-61
2021/05/31 03:08:46;;;;;;;9.15;6.55;;;;;;;14.47;73.59;100581.36;1799026;80;21197;-64
2021/05/31 03:11:52;;;;;;;11.05;6.67;;;;;;;14.42;73.56;100583.84;1798918;80;21243;-62
2021/05/31 03:14:59;;;;;;;7.70;6.30;;;;;;;14.43;73.54;100589.70;1798939;80;21275;-62
2021/05/31 03:18:07;;;;;;;11.05;6.37;;;;;;;14.48;73.52;100587.18;1798936;80;21157;-63
2021/05/31 03:21:13;;;;;;;9.08;5.75;;;;;;;14.56;73.39;100589.81;1798805;80;21224;-60
2021/05/31 03:24:19;;;;;;;9.25;6.40;;;;;;;14.51;73.04;100602.80;1785910;80;21271;-62
2021/05/31 03:27:25;;;;;;;11.25;6.42;;;;;;;14.54;73.11;100600.20;1774367;81;21291;-61
2021/05/31 03:30:30;;;;;;;5.95;4.62;;;;;;;14.53;72.87;100600.72;1774498;81;21259;-64
2021/05/31 03:33:35;;;;;;;8.08;5.87;;;;;;;14.52;72.86;100591.27;1774630;81;21566;-61
2021/05/31 03:36:42;;;;;;;8.20;5.62;;;;;;;14.52;72.80;100591.27;1766858;81;21374;-62
2021/05/31 03:39:47;;;;;;;8.40;6.17;;;;;;;14.54;72.80;100594.69;1763684;81;21390;-59
2021/05/31 03:42:51;;;;;;;6.17;5.25;;;;;;;14.53;72.90;100598.47;1763596;81;21236;-60
2021/05/31 03:45:57;;;;;;;9.15;5.00;;;;;;;14.54;73.09;100601.58;1763674;81;21987;-60
2021/05/31 03:49:02;;;;;;;7.53;4.08;;;;;;;14.61;73.08;100597.83;1763348;80;21403;-62
2021/05/31 03:52:08;;;;;;;9.73;4.62;;;;;;;14.67;72.81;100603.06;1752456;82;21244;-61
2021/05/31 03:55:15;;;;;;;6.00;4.22;;;;;;;14.61;72.50;100604.72;1752426;82;21363;-60
2021/05/31 03:58:21;;;;;;;7.80;4.75;;;;;;;14.56;72.53;100607.20;1752521;82;21723;-62
2021/05/31 04:01:26;;;;;;;7.10;5.00;;;;;;;14.53;72.54;100608.98;1752510;82;21209;-63
2021/05/31 04:04:42;;;;;;;6.00;5.12;;;;;;;14.52;72.60;100607.80;1752626;82;21279;-62
2021/05/31 04:14:26;;;;;;;7.83;5.45;;;;;;;14.43;72.37;100614.48;1752481;82;21586;-63
2021/05/31 04:17:31;;;;;;;7.33;4.92;;;;;;;14.41;72.55;100608.31;1752575;82;21185;-62
2021/05/31 04:20:36;;;;;;;7.47;5.42;;;;;;;14.46;72.85;100606.66;1752619;82;21225;-60
2021/05/31 04:23:43;;;;;;;7.17;5.67;;;;;;;14.54;72.45;100603.78;1752586;82;21339;-61
2021/05/31 04:26:51;;;;;;;8.35;4.90;;;;;;;14.60;72.21;100604.38;1752536;82;21418;-60
2021/05/31 04:29:57;;;;;;;6.37;4.30;;;;;;;14.65;72.18;100610.16;1752464;82;21221;-61
2021/05/31 04:33:02;;;;;;;5.80;3.92;;;;;;;14.77;71.80;100607.22;1751994;82;21753;-62
2021/05/31 04:36:08;;;;;;;7.70;3.60;;;;;;;14.84;71.22;100610.88;1751958;82;21244;-62
2021/05/31 04:39:14;;;;;;;5.28;3.85;;;;;;;14.96;70.76;100616.20;1703938;84;21374;-62
2021/05/31 04:42:22;;;;;;;8.48;3.85;;;;;;;15.03;70.44;100619.53;1722117;82;21248;-62
2021/05/31 04:45:30;;;;;;;6.85;3.47;;;;;;;15.06;70.04;100621.89;1721718;83;21365;-62
2021/05/31 04:48:35;;;;;;;9.85;4.10;;;;;;;15.10;69.63;100628.18;1707301;83;21199;-61
2021/05/31 04:51:40;;;;;;;6.70;3.52;;;;;;;15.15;69.61;100620.17;1721955;83;21771;-59
2021/05/31 04:54:49;;;;;;;7.72;3.90;;;;;;;15.28;69.62;100623.55;1717561;83;21265;-62
2021/05/31 04:57:54;;;;;;;5.10;3.75;;;;;;;15.36;68.51;100622.89;1705300;83;21244;-62
2021/05/31 05:01:09;;;;;;;6.75;3.67;;;;;;;15.35;68.09;100623.92;1719264;82;21223;-58
2021/05/31 05:04:16;;;;;;;3.95;3.27;;;;;;;15.38;67.16;100629.07;1721780;83;21203;-59
2021/05/31 05:07:26;;;;;;;5.30;4.33;;;;;;;15.40;67.05;100631.11;1720514;83;21247;-61
2021/05/31 05:10:36;;;;;;;7.20;4.08;;;;;;;15.34;67.32;100622.23;1693394;84;21256;-61
2021/05/31 05:13:45;;;;;;;4.65;3.58;;;;;;;15.33;67.60;100628.81;1705652;82;21593;-60
2021/05/31 05:16:50;;;;;;;4.72;3.35;;;;;;;15.30;67.17;100628.36;1693494;84;21352;-63
2021/05/31 05:19:57;;;;;;;5.53;3.90;;;;;;;15.23;67.27;100628.30;1718308;82;21242;-63
2021/05/31 05:23:08;;;;;;;5.47;3.90;;;;;;;15.24;67.60;100627.23;1722405;83;21221;-61
2021/05/31 05:26:18;;;;;;;5.30;2.95;;;;;;;15.23;67.94;100630.19;1722293;83;21212;-60
2021/05/31 05:29:26;;;;;;;4.37;3.27;;;;;;;15.27;67.79;100638.41;1722098;83;21680;-59
2021/05/31 05:32:36;;;;;;;3.58;2.50;;;;;;;15.32;66.99;100639.50;1721816;83;21793;-63
2021/05/31 05:35:50;;;;;;;3.15;2.67;;;;;;;15.36;65.85;100639.45;1720958;83;21231;-62
2021/05/31 05:39:24;;;;;;;3.77;3.00;;;;;;;15.35;65.22;100637.72;1737069;81;21288;-60
2021/05/31 05:45:52;;;;;;;8.83;3.50;;;;;;;15.40;65.21;100648.18;1715867;83;21769;-62
2021/05/31 05:48:52;;;;;;;7.92;2.75;;;;;;;15.33;65.75;100643.13;1716738;82;21322;-61
2021/05/31 05:51:57;;;;;;;5.17;3.22;;;;;;;15.31;65.21;100645.22;1713886;82;21303;-60
2021/05/31 05:55:02;;;;;;;3.98;3.27;;;;;;;15.27;65.04;100649.45;1716618;83;21204;-64
2021/05/31 05:58:08;;;;;;;3.83;2.87;;;;;;;15.30;64.61;100646.28;1710113;83;21275;-61
2021/05/31 06:01:15;;;;;;;9.18;3.02;;;;;;;15.34;64.63;100647.06;1689421;85;21355;-60
2021/05/31 06:04:21;;;;;;;3.62;2.90;;;;;;;15.45;64.70;100645.16;1692517;85;21362;-61
2021/05/31 06:07:27;;;;;;;4.60;2.98;;;;;;;15.59;64.05;100647.48;1721509;83;21330;-60
2021/05/31 06:10:33;;;;;;;3.67;2.98;;;;;;;15.73;63.83;100647.92;1709128;84;21402;-62
2021/05/31 06:13:42;;;;;;;5.22;3.30;;;;;;;15.79;62.64;100647.93;1709073;84;21351;-59
2021/05/31 06:16:49;;;;;;;4.33;3.10;;;;;;;15.75;62.46;100641.13;1709021;84;21876;-60
2021/05/31 06:20:00;;;;;;;4.15;3.22;;;;;;;15.77;62.93;100643.16;1709011;84;21578;-61
2021/05/31 06:23:00;;;;;;;3.05;2.45;;;;;;;15.84;63.07;100641.83;1708610;84;21216;-63
2021/05/31 06:26:07;;;;;;;3.40;2.50;;;;;;;15.93;62.45;100645.60;1708376;83;21200;-68
2021/05/31 06:29:14;;;;;;;5.85;3.22;;;;;;;15.96;62.13;100641.56;1708689;84;21588;-67
2021/05/31 06:32:20;;;;;;;3.77;2.80;;;;;;;15.91;61.55;100649.08;1702394;83;21159;-61
2021/05/31 06:35:27;;;;;;;5.50;2.50;;;;;;;15.97;61.77;100637.22;1708596;83;21215;-65
2021/05/31 06:38:33;;;;;;;8.63;4.28;;;;;;;16.08;61.05;100640.77;1709048;84;21366;-63
2021/05/31 06:41:39;;;;;;;6.03;4.00;;;;;;;16.24;61.27;100634.91;1666324;85;21427;-63
2021/05/31 06:44:45;;;;;;;4.92;3.58;;;;;;;16.33;60.45;100641.95;1653880;85;21780;-61
2021/05/31 06:47:53;;;;;;;6.30;3.98;;;;;;;16.37;60.10;100638.24;1702771;84;21267;-62
2021/05/31 06:51:00;;;;;;;4.50;3.35;;;;;;;16.54;60.63;100648.45;1706211;82;21208;-62
2021/05/31 06:54:05;;;;;;;6.95;3.40;;;;;;;16.62;59.39;100642.73;1705769;83;21177;-62
2021/05/31 06:57:10;;;;;;;4.67;3.20;;;;;;;16.66;59.08;100632.42;1706207;83;21317;-61
2021/05/31 07:00:17;;;;;;;5.08;3.45;;;;;;;16.66;58.52;100635.71;1706626;82;21198;-62
2021/05/31 07:03:22;;;;;;;6.17;4.50;;;;;;;16.62;59.05;100644.94;1682616;83;21188;-61
2021/05/31 07:06:31;;;;;;;5.67;4.05;;;;;;;16.68;60.25;100648.80;1696975;83;21212;-62
2021/05/31 07:09:42;;;;;;;4.78;4.05;;;;;;;16.69;60.84;100647.20;1703441;82;21287;-61
2021/05/31 07:12:48;;;;;;;7.00;4.17;;;;;;;16.67;60.06;100647.94;1700400;83;21199;-63
2021/05/31 07:15:56;;;;;;;14.90;11.08;;;;;;;16.47;60.11;100649.80;1710381;82;21224;-63
2021/05/31 07:19:03;;;;;;;10.50;9.15;;;;;;;16.27;60.85;100655.73;1709945;83;21718;-65
2021/05/31 07:22:08;;;;;;;9.33;5.47;;;;;;;16.12;61.48;100653.14;1701479;83;21182;-60
2021/05/31 07:25:15;;;;;;;6.08;4.30;;;;;;;16.05;61.64;100652.23;1692017;83;21211;-59
2021/05/31 07:28:23;;;;;;;6.25;4.40;;;;;;;15.95;62.16;100648.98;1688114;83;21200;-58
2021/05/31 07:31:29;;;;;;;5.08;3.35;;;;;;;15.98;62.30;100656.86;1702651;82;21246;-60
2021/05/31 07:34:35;;;;;;;5.75;4.08;;;;;;;15.97;62.45;100655.16;1698884;82;21893;-59
2021/05/31 07:37:45;;;;;;;4.87;3.10;;;;;;;16.10;61.99;100661.28;1707354;84;21237;-60
2021/05/31 07:40:51;;;;;;;4.08;2.87;;;;;;;16.24;60.95;100665.30;1711055;81;21219;-59
2021/05/31 07:43:58;;;;;;;3.87;2.70;;;;;;;16.33;60.14;100670.95;1750093;81;21239;-59
2021/05/31 07:47:04;;;;;;;9.70;3.33;;;;;;;16.39;59.88;100660.45;1751706;81;21792;-60
2021/05/31 07:50:14;;;;;;;5.33;2.85;;;;;;;16.54;59.87;100668.63;1754718;80;21261;-61
2021/05/31 07:53:20;;;;;;;4.22;2.80;;;;;;;16.71;58.84;100671.88;1746966;81;21252;-60
2021/05/31 07:56:35;;;;;;;4.78;3.20;;;;;;;16.76;58.44;100670.73;1758236;80;21197;-60
2021/05/31 07:59:43;;;;;;;4.33;2.33;;;;;;;16.78;58.82;100671.34;1744232;81;21232;-61
2021/05/31 08:07:00;;;;;;;5.67;2.27;;;;;;;16.93;59.02;100681.20;1755199;80;21175;-59
2021/05/31 08:10:07;;;;;;;7.17;2.30;;;;;;;16.95;58.61;100680.98;1751387;80;21634;-59
2021/05/31 08:13:13;;;;;;;3.25;2.52;;;;;;;16.88;58.48;100681.48;1753803;81;21178;-61
2021/05/31 08:16:18;;;;;;;4.05;2.75;;;;;;;16.79;58.12;100677.22;1757598;80;21225;-59
2021/05/31 08:19:29;;;;;;;4.58;2.60;;;;;;;16.77;58.64;100683.48;1757624;80;21315;-60
2021/05/31 08:22:33;;;;;;;4.30;3.37;;;;;;;16.76;58.55;100687.32;1751032;81;21169;-60
2021/05/31 08:25:40;;;;;;;4.00;2.42;;;;;;;16.68;58.08;100681.98;1772614;80;21243;-60
2021/05/31 08:28:47;;;;;;;3.45;2.60;;;;;;;16.58;58.17;100689.28;1749851;80;21241;-60
2021/05/31 08:31:53;;;;;;;1.92;1.52;;;;;;;16.54;58.58;100688.52;1766468;80;21319;-61
2021/05/31 08:34:58;;;;;;;1.67;1.45;;;;;;;16.53;58.54;100690.42;1766660;81;21296;-60
2021/05/31 08:38:04;;;;;;;4.12;1.45;;;;;;;16.44;58.16;100693.88;1766906;81;21196;-59
2021/05/31 08:41:11;;;;;;;2.10;1.60;;;;;;;16.34;58.41;100694.78;1739764;80;21259;-62
2021/05/31 08:44:17;;;;;;;4.00;1.87;;;;;;;16.26;58.40;100685.80;1749855;81;21188;-59
2021/05/31 08:47:25;;;;;;;6.92;1.90;;;;;;;16.27;58.55;100695.79;1758467;80;21371;-60
2021/05/31 08:50:34;;;;;;;2.00;1.60;;;;;;;16.21;58.55;100694.71;1758494;81;21374;-62
2021/05/31 08:53:39;;;;;;;7.03;2.20;;;;;;;16.20;58.42;100695.78;1758785;81;21761;-60
2021/05/31 08:56:45;;;;;;;3.27;1.90;;;;;;;16.27;58.79;100690.27;1760291;81;21290;-59
2021/05/31 08:59:51;;;;;;;4.47;2.22;;;;;;;16.46;58.79;100681.80;1751910;80;21454;-59
2021/05/31 09:02:57;;;;;;;4.50;2.08;;;;;;;16.67;58.14;100691.31;1748249;81;21370;-63
2021/05/31 09:06:10;;;;;;;4.22;2.50;;;;;;;16.85;57.64;100690.20;1746588;81;21197;-62
2021/05/31 09:09:15;;;;;;;4.83;2.02;;;;;;;17.00;56.92;100683.42;1746015;81;21183;-60
2021/05/31 09:12:23;;;;;;;6.15;2.60;;;;;;;17.12;56.59;100683.67;1744371;81;21252;-59
2021/05/31 09:15:29;;;;;;;6.65;1.70;;;;;;;17.32;56.38;100677.61;1746935;80;21251;-60
2021/05/31 09:18:33;;;;;;;5.87;1.90;;;;;;;17.46;55.77;100680.73;1746868;81;21177;-60
2021/05/31 09:21:43;;;;;;;3.80;2.20;;;;;;;17.62;55.33;100681.69;1740559;81;21346;-59
2021/05/31 09:24:51;;;;;;;5.33;2.05;;;;;;;17.86;55.70;100685.17;1740799;81;21381;-60
2021/05/31 09:27:58;;;;;;;3.22;1.92;;;;;;;18.08;54.63;100689.91;1732148;81;21574;-60
2021/05/31 09:31:03;;;;;;;3.27;1.85;;;;;;;18.21;53.80;100687.98;1734723;81;21240;-62
2021/05/31 09:34:15;;;;;;;3.22;2.00;;;;;;;18.31;54.09;100692.54;1749513;81;21188;-60
2021/05/31 09:37:25;;;;;;;2.12;1.52;;;;;;;18.43;53.58;100686.65;1757420;81;21188;-61
2021/05/31 09:40:30;;;;;;;6.47;3.58;;;;;;;18.72;52.93;100693.56;1757244;80;21223;-59
2021/05/31 09:43:37;;;;;;;6.22;2.30;;;;;;;18.80;52.15;100695.56;1759313;81;21931;-63
2021/05/31 09:46:53;;;;;;;5.30;1.70;;;;;;;18.79;51.04;100691.06;1762574;81;21208;-63
2021/05/31 09:49:58;;;;;;;1.90;1.20;;;;;;;18.67;50.59;100683.13;1761151;81;21254;-61
2021/05/31 09:53:18;;;;;;;3.52;1.57;;;;;;;18.62;50.63;100684.33;1766556;80;21302;-60
2021/05/31 09:56:24;;;;;;;2.33;1.10;;;;;;;18.68;50.80;100690.38;1753404;81;21754;-62
2021/05/31 09:59:31;;;;;;;2.22;1.47;;;;;;;18.85;50.79;100687.95;1763444;81;21746;-62
2021/05/31 10:06:15;;;;;;;5.28;1.60;;;;;;;19.08;51.15;100681.28;1762586;81;21818;-63
2021/05/31 10:09:15;;;;;;;13.10;2.77;;;;;;;19.14;50.12;100677.08;1762566;81;21547;-57
2021/05/31 10:12:21;;;;;;;5.50;2.50;;;;;;;19.05;50.69;100680.34;1762888;80;21256;-57
2021/05/31 10:15:36;;;;;;;4.20;1.55;;;;;;;19.04;50.36;100686.42;1762059;80;21228;-58
2021/05/31 10:18:47;;;;;;;1.65;1.22;;;;;;;19.00;51.01;100682.41;1763131;81;21760;-59
2021/05/31 10:21:53;;;;;;;4.83;2.62;;;;;;;19.05;49.98;100690.92;1763033;80;21244;-58
2021/05/31 10:25:00;;;;;;;3.47;1.50;;;;;;;18.98;50.13;100698.42;1731923;80;21216;-59
2021/05/31 10:28:26;;;;;;;1.10;0.90;;;;;;;18.83;50.28;100690.95;1727553;81;21217;-57
2021/05/31 10:31:31;;;;;;;2.55;1.10;;;;;;;18.92;50.57;100685.44;1761575;80;21225;-56
2021/05/31 10:34:36;;;;;;;2.80;1.20;;;;;;;19.06;50.44;100681.51;1754461;81;21762;-57
2021/05/31 10:37:41;;;;;;;3.30;1.40;;;;;;;19.18;50.24;100685.29;1732095;83;21195;-57
2021/05/31 10:40:49;;;;;;;3.95;1.60;;;;;;;19.18;50.32;100681.13;1746678;81;21204;-55
2021/05/31 10:44:01;;;;;;;5.87;1.25;;;;;;;19.13;50.67;100680.94;1748678;80;21429;-58
2021/05/31 10:47:19;;;;;;;3.55;1.50;;;;;;;19.19;50.21;100684.73;1734261;80;21868;-56
2021/05/31 10:50:26;;;;;;;1.10;0.75;;;;;;;19.03;50.27;100681.09;1762302;81;21286;-56
2021/05/31 10:53:32;;;;;;;2.77;1.10;;;;;;;19.00;50.18;100674.08;1761223;80;21176;-57
2021/05/31 10:56:37;;;;;;;6.28;1.35;;;;;;;19.02;50.80;100671.08;1761356;80;21279;-57
2021/05/31 10:59:59;;;;;;;4.50;1.90;;;;;;;19.11;50.78;100676.14;1754678;80;21224;-56
2021/05/31 11:03:19;;;;;;;3.12;1.37;;;;;;;19.22;50.65;100671.26;1764667;80;21791;-57
2021/05/31 11:06:30;;;;;;;0.78;0.60;;;;;;;19.25;49.61;100667.17;1732883;82;21227;-58
2021/05/31 11:09:40;;;;;;;1.57;0.90;;;;;;;19.27;49.17;100675.60;1753723;80;21226;-56
2021/05/31 11:12:45;;;;;;;2.72;0.88;;;;;;;19.41;49.73;100676.93;1759516;80;21749;-57
2021/05/31 11:15:53;;;;;;;2.92;0.80;;;;;;;19.50;49.75;100668.63;1758475;80;21764;-56
2021/05/31 11:19:08;;;;;;;4.78;0.85;;;;;;;19.61;48.72;100677.59;1741617;81;21741;-55
2021/05/31 11:22:35;;;;;;;1.27;0.80;;;;;;;19.52;48.46;100660.92;1750668;81;21357;-57
2021/05/31 11:25:41;;;;;;;1.47;0.90;;;;;;;19.50;48.53;100665.31;1736370;82;21359;-58
2021/05/31 11:28:46;;;;;;;2.45;0.72;;;;;;;19.61;48.09;100674.82;1752819;80;21192;-55
2021/05/31 11:31:53;;;;;;;3.15;0.62;;;;;;;19.59;47.71;100672.80;1731558;82;21522;-56
2021/05/31 11:35:09;;;;;;;1.10;0.62;;;;;;;19.54;47.17;100661.52;1734946;82;21260;-55
2021/05/31 11:38:20;;;;;;;1.87;1.42;;;;;;;19.47;47.18;100671.33;1760637;81;21199;-57
2021/05/31 11:41:25;;;;;;;4.10;0.80;;;;;;;19.53;47.10;100658.44;1755953;80;21582;-57
2021/05/31 11:44:37;;;;;;;0.78;0.70;;;;;;;19.61;47.07;100655.38;1749147;81;21219;-60
2021/05/31 11:47:46;;;;;;;1.98;0.75;;;;;;;19.80;46.88;100661.28;1743010;81;21366;-57
2021/05/31 11:50:56;;;;;;;2.47;0.72;;;;;;;19.83;46.43;100655.27;1718679;81;21482;-57
2021/05/31 11:54:01;;;;;;;3.62;0.90;;;;;;;19.85;46.76;100658.67;1736738;80;21239;-57
2021/05/31 11:57:19;;;;;;;2.02;0.80;;;;;;;20.01;47.22;100648.36;1712831;83;21219;-57
2021/05/31 12:00:28;;;;;;;2.87;0.90;;;;;;;20.02;46.48;100652.82;1712421;80;21231;-56
2021/05/31 12:03:34;;;;;;;5.45;1.32;;;;;;;20.00;47.00;100653.05;1712603;82;21753;-57
2021/05/31 12:06:41;;;;;;;4.12;0.90;;;;;;;20.01;47.26;100651.95;1712928;83;21299;-57
2021/05/31 12:09:48;;;;;;;2.42;0.90;;;;;;;20.17;46.31;100653.34;1714720;82;21319;-57
2021/05/31 12:12:56;;;;;;;1.22;0.80;;;;;;;20.21;45.80;100644.30;1741998;81;21196;-55
2021/05/31 12:16:00;;;;;;;1.62;0.75;;;;;;;20.20;45.82;100649.53;1741843;82;21819;-56
2021/05/31 12:19:05;;;;;;;1.20;0.90;;;;;;;19.99;45.56;100651.36;1747078;81;21386;-56
2021/05/31 12:22:13;;;;;;;2.75;1.10;;;;;;;19.77;46.95;100649.25;1741691;82;21685;-55
2021/05/31 12:25:20;;;;;;;4.97;1.20;;;;;;;19.70;47.60;100655.39;1733677;82;21224;-55
2021/05/31 12:28:29;;;;;;;4.58;1.15;;;;;;;19.62;47.32;100652.38;1741667;82;21351;-57
2021/05/31 12:31:41;;;;;;;3.60;0.80;;;;;;;19.51;48.12;100649.48;1742748;81;21218;-55
2021/05/31 12:34:48;;;;;;;8.43;2.15;;;;;;;19.45;47.70;100655.95;1742952;81;21214;-56
2021/05/31 12:37:53;;;;;;;2.92;0.80;;;;;;;19.40;48.01;100648.83;1743354;81;21878;-57
2021/05/31 12:40:58;;;;;;;3.33;1.30;;;;;;;19.28;47.60;100644.01;1742750;81;21782;-54
2021/05/31 12:44:13;;;;;;;6.20;1.90;;;;;;;19.22;48.06;100646.27;1742457;81;21198;-55
2021/05/31 12:47:24;;;;;;;0.88;0.70;;;;;;;19.09;48.45;100642.77;1724364;82;21279;-57
2021/05/31 12:50:38;;;;;;;4.87;1.80;;;;;;;19.02;48.16;100644.19;1732612;83;21295;-57
2021/05/31 12:53:45;;;;;;;2.92;1.00;;;;;;;19.04;48.48;100640.63;1733013;83;21263;-57
2021/05/31 12:56:52;;;;;;;2.70;1.00;;;;;;;19.14;48.09;100640.13;1744467;80;21200;-56
2021/05/31 12:59:58;;;;;;;2.65;1.15;;;;;;;19.21;47.98;100632.63;1752812;81;21573;-56
2021/05/31 13:03:06;;;;;;;2.80;0.85;;;;;;;19.22;47.92;100635.70;1768765;80;21191;-57
2021/05/31 13:06:13;;;;;;;3.27;0.95;;;;;;;19.33;47.72;100624.45;1741181;81;21335;-57
2021/05/31 13:09:28;;;;;;;2.55;0.90;;;;;;;19.56;47.72;100627.43;1765629;80;21358;-59
2021/05/31 13:12:34;;;;;;;2.62;0.78;;;;;;;19.61;46.98;100626.22;1766753;80;21320;-57
2021/05/31 13:15:57;;;;;;;1.67;0.82;;;;;;;19.37;46.76;100627.07;1766555;80;21256;-57
2021/05/31 13:19:05;;;;;;;2.12;0.90;;;;;;;19.30;47.05;100629.91;1752849;80;21359;-55
2021/05/31 13:22:14;;;;;;;3.25;0.85;;;;;;;19.31;46.73;100631.06;1752634;81;21324;-58
2021/05/31 13:25:24;;;;;;;0.88;0.60;;;;;;;19.25;46.68;100624.14;1728308;82;21317;-63
2021/05/31 13:28:41;;;;;;;2.52;0.78;;;;;;;19.29;46.52;100619.36;1748899;81;21243;-58
2021/05/31 13:31:47;;;;;;;3.33;0.70;;;;;;;19.42;47.20;100612.83;1757892;81;21850;-58
2021/05/31 13:34:53;;;;;;;1.77;0.90;;;;;;;19.68;46.66;100614.52;1757310;81;21240;-60
2021/05/31 13:38:08;;;;;;;1.62;0.60;;;;;;;19.79;45.88;100617.92;1734854;81;21906;-59
2021/05/31 13:41:16;;;;;;;4.37;1.07;;;;;;;19.69;45.53;100605.09;1745787;81;21208;-58
2021/05/31 13:44:27;;;;;;;1.75;1.05;;;;;;;19.60;45.71;100611.47;1762848;81;21304;-58
2021/05/31 13:47:33;;;;;;;1.70;0.72;;;;;;;19.57;46.08;100611.09;1760262;80;21220;-59
2021/05/31 13:50:39;;;;;;;4.90;0.80;;;;;;;19.49;46.01;100618.33;1762510;81;21212;-58
2021/05/31 13:53:44;;;;;;;0.90;0.62;;;;;;;19.20;46.40;100617.88;1763102;81;21232;-58
2021/05/31 13:56:51;;;;;;;9.43;0.90;;;;;;;19.01;46.55;100619.45;1763539;81;21749;-58
2021/05/31 13:59:59;;;;;;;2.08;1.20;;;;;;;18.84;46.90;100619.64;1749004;80;21200;-61
2021/05/31 14:03:05;;;;;;;4.22;1.10;;;;;;;18.69;47.30;100603.34;1757375;81;21223;-59
2021/05/31 14:06:11;;;;;;;4.00;0.90;;;;;;;18.90;47.20;100611.84;1758537;80;21180;-57
2021/05/31 14:09:19;;;;;;;6.80;1.47;;;;;;;18.98;46.43;100608.23;1756401;80;21162;-58
2021/05/31 14:12:25;;;;;;;1.85;0.72;;;;;;;18.93;46.38;100617.77;1732015;82;21204;-57
2021/05/31 14:15:32;;;;;;;5.45;0.95;;;;;;;18.85;46.37;100616.65;1733219;82;21235;-57
2021/05/31 14:18:41;;;;;;;2.50;0.80;;;;;;;18.70;46.48;100617.51;1733360;83;21244;-58
2021/05/31 14:21:46;;;;;;;3.35;1.27;;;;;;;18.64;46.83;100620.32;1718024;82;21697;-59
2021/05/31 14:24:56;;;;;;;3.70;0.90;;;;;;;18.90;47.13;100605.73;1762407;80;21220;-59
2021/05/31 14:28:01;;;;;;;6.45;0.85;;;;;;;18.98;46.45;100606.02;1762659;81;21279;-58
2021/05/31 14:31:07;;;;;;;4.42;0.80;;;;;;;18.73;46.54;100612.91;1762650;81;21753;-59
2021/05/31 14:34:13;;;;;;;3.92;0.90;;;;;;;18.47;46.42;100617.75;1762541;80;21248;-56
2021/05/31 14:37:18;;;;;;;4.90;1.20;;;;;;;18.10;47.53;100633.23;1761441;81;21219;-57
2021/05/31 14:40:24;;;;;;;2.98;1.30;;;;;;;17.92;47.88;100630.29;1757779;81;21201;-58
2021/05/31 14:43:29;;;;;;;6.05;1.07;;;;;;;17.86;48.02;100626.48;1763310;81;21239;-58
2021/05/31 14:46:36;;;;;;;3.85;1.10;;;;;;;17.94;48.20;100635.09;1763018;80;21290;-59
2021/05/31 14:49:43;;;;;;;3.10;1.00;;;;;;;18.05;47.51;100630.78;1759351;80;21753;-58
2021/05/31 14:52:48;;;;;;;8.15;1.40;;;;;;;18.21;47.47;100631.16;1706900;83;21175;-57